createdAt,value
2024-05-09T00:02:04.875Z,14.20
2024-05-09T00:06:08.518Z,14.30
2024-05-09T00:10:17.846Z,14.30
2024-05-09T00:14:13.092Z,14.40
2024-05-09T00:18:14.719Z,14.40
2024-05-09T00:22:16.334Z,14.30
2024-05-09T00:26:17.720Z,14.30
2024-05-09T00:30:27.789Z,14.30
2024-05-09T00:34:23.714Z,14.30
2024-05-09T00:38:25.088Z,14.30
2024-05-09T00:42:26.384Z,14.30
2024-05-09T00:46:27.688Z,14.20
2024-05-09T00:50:35.754Z,14.20
2024-05-09T00:54:32.817Z,14.10
2024-05-09T00:58:34.152Z,14.00
2024-05-09T01:02:35.596Z,14.00
2024-05-09T01:06:37.217Z,13.60
2024-05-09T01:10:39.511Z,13.20
2024-05-09T01:14:41.964Z,12.90
2024-05-09T01:18:43.417Z,13.00
2024-05-09T01:22:45.122Z,13.20
2024-05-09T01:26:46.527Z,13.30
2024-05-09T01:30:47.819Z,13.50
2024-05-09T01:34:49.207Z,13.50
2024-05-09T01:38:50.446Z,13.60
2024-05-09T01:42:51.769Z,13.70
2024-05-09T01:46:53.112Z,13.80
2024-05-09T01:50:54.442Z,13.80
2024-05-09T01:54:55.707Z,14.00
2024-05-09T01:58:57.057Z,13.80
2024-05-09T02:02:58.506Z,13.80
2024-05-09T02:07:00.949Z,13.70
2024-05-09T02:11:02.401Z,13.70
2024-05-09T02:15:04.651Z,13.70
2024-05-09T02:19:06.088Z,13.80
2024-05-09T02:23:08.288Z,13.80
2024-05-09T02:27:09.826Z,13.90
2024-05-09T02:31:12.544Z,13.80
2024-05-09T02:35:14.143Z,13.70
2024-05-09T02:39:15.520Z,13.70
2024-05-09T02:43:16.863Z,13.80
2024-05-09T02:47:18.269Z,13.80
2024-05-09T02:51:19.606Z,13.80
2024-05-09T02:59:28.142Z,13.60
2024-05-09T03:03:29.693Z,13.50
2024-05-09T03:07:31.467Z,13.30
2024-05-09T03:11:32.868Z,13.20
2024-05-09T03:15:34.337Z,13.10
2024-05-09T03:19:36.210Z,13.10
2024-05-09T03:23:41.310Z,13.20
2024-05-09T03:27:42.692Z,13.20
2024-05-09T03:31:44.183Z,13.10
2024-05-09T03:35:45.818Z,13.10
2024-05-09T03:39:47.216Z,13.00
2024-05-09T03:43:48.600Z,13.10
2024-05-09T03:47:50.047Z,13.10
2024-05-09T03:51:51.531Z,12.90
2024-05-09T03:55:52.810Z,12.80
2024-05-09T03:59:54.140Z,12.90
2024-05-09T04:03:55.836Z,12.90
2024-05-09T04:07:57.502Z,12.90
2024-05-09T04:11:59.040Z,12.90
2024-05-09T04:16:00.372Z,12.70
2024-05-09T04:20:01.720Z,12.60
2024-05-09T04:24:05.358Z,12.50
2024-05-09T04:28:06.688Z,12.50
2024-05-09T04:32:08.079Z,12.50
2024-05-09T04:36:09.539Z,12.90
2024-05-09T04:40:20.527Z,13.20
2024-05-09T04:44:14.572Z,13.50
2024-05-09T04:48:16.042Z,14.00
2024-05-09T04:52:17.570Z,14.40
2024-05-09T04:56:19.766Z,14.80
2024-05-09T05:00:28.637Z,14.90
2024-05-09T05:04:24.486Z,14.80
2024-05-09T05:08:26.332Z,14.70
2024-05-09T05:12:45.744Z,14.70
2024-05-09T05:16:47.111Z,14.90
2024-05-09T05:20:49.152Z,15.10
2024-05-09T05:24:50.497Z,15.00
2024-05-09T05:28:51.889Z,15.00
2024-05-09T05:32:53.405Z,15.00
2024-05-09T05:36:55.291Z,14.80
2024-05-09T05:40:56.806Z,15.00
2024-05-09T05:44:58.348Z,15.30
2024-05-09T05:48:59.683Z,15.20
2024-05-09T05:53:01.192Z,15.40
2024-05-09T05:57:03.644Z,15.30
2024-05-09T06:01:05.189Z,15.30
2024-05-09T06:05:06.885Z,15.30
2024-05-09T06:09:08.278Z,15.30
2024-05-09T06:13:10.111Z,15.30
2024-05-09T06:17:12.192Z,15.30
2024-05-09T06:21:16.316Z,15.40
2024-05-09T06:25:18.115Z,15.50
2024-05-09T06:29:19.459Z,15.40
2024-05-09T06:33:21.822Z,15.40
2024-05-09T06:37:23.283Z,15.50
2024-05-09T06:41:25.153Z,15.40
2024-05-09T06:45:26.471Z,15.60
2024-05-09T06:49:29.349Z,15.50
2024-05-09T06:53:30.886Z,15.60
2024-05-09T06:57:32.291Z,15.60
2024-05-09T07:01:33.671Z,16.20
2024-05-09T07:05:35.130Z,16.80
2024-05-09T07:09:36.829Z,17.00
2024-05-09T07:13:38.172Z,17.00
2024-05-09T07:17:39.611Z,16.90
2024-05-09T07:21:41.013Z,16.90
2024-05-09T07:25:42.537Z,17.00
2024-05-09T07:29:43.888Z,17.00
2024-05-09T07:33:45.628Z,17.20
2024-05-09T07:37:47.450Z,17.50
2024-05-09T07:41:49.049Z,17.60
2024-05-09T07:45:54.094Z,17.70
2024-05-09T07:51:32.878Z,18.00
2024-05-09T07:53:59.877Z,17.80
2024-05-09T08:02:07.796Z,18.10
2024-05-09T08:06:09.165Z,17.90
2024-05-09T08:10:12.898Z,18.20
2024-05-09T08:14:13.579Z,18.50
2024-05-09T08:18:15.214Z,18.60
2024-05-09T08:22:16.678Z,18.80
2024-05-09T08:26:18.004Z,19.30
2024-05-09T08:30:25.282Z,19.60
2024-05-09T08:34:23.092Z,20.00
2024-05-09T08:38:24.940Z,20.20
2024-05-09T08:42:28.445Z,20.50
2024-05-09T08:46:31.750Z,20.80
2024-05-09T08:50:38.890Z,21.30
2024-05-09T08:54:37.849Z,21.50
2024-05-09T08:58:41.098Z,21.50
2024-05-09T09:02:44.565Z,21.70
2024-05-09T09:06:46.254Z,21.90
2024-05-09T09:10:48.526Z,22.00
2024-05-09T09:14:50.262Z,22.60
2024-05-09T09:18:52.566Z,23.20
2024-05-09T09:22:54.532Z,23.50
2024-05-09T09:26:56.550Z,23.70
2024-05-09T09:31:02.441Z,23.10
2024-05-09T09:35:04.410Z,24.00
2024-05-09T09:39:06.986Z,24.30
2024-05-09T09:43:12.440Z,24.70
2024-05-09T09:47:14.750Z,24.90
2024-05-09T09:51:16.378Z,24.40
2024-05-09T09:55:17.844Z,24.10
2024-05-09T09:59:21.405Z,23.90
2024-05-09T10:03:22.927Z,24.10
2024-05-09T10:07:26.729Z,24.10
2024-05-09T10:11:32.843Z,23.90
2024-05-09T10:15:48.969Z,24.30
2024-05-09T10:19:50.353Z,24.90
2024-05-09T10:24:01.219Z,25.10
2024-05-09T10:28:06.404Z,25.40
2024-05-09T10:32:08.301Z,25.20
2024-05-09T10:36:21.220Z,24.00
2024-05-09T10:40:28.784Z,23.90
2024-05-09T10:44:26.142Z,23.00
2024-05-09T10:48:31.498Z,22.90
2024-05-09T10:52:34.019Z,23.20
2024-05-09T10:56:36.441Z,23.10
2024-05-09T11:00:38.025Z,22.70
2024-05-09T11:04:40.299Z,22.50
2024-05-09T11:08:42.356Z,22.60
2024-05-09T11:12:45.172Z,22.30
2024-05-09T11:16:46.512Z,22.30
2024-05-09T11:20:47.838Z,23.00
2024-05-09T11:24:49.366Z,22.80
2024-05-09T11:28:51.298Z,23.50
2024-05-09T11:32:53.376Z,23.90
2024-05-09T11:36:54.938Z,24.70
2024-05-09T11:40:57.230Z,24.50
2024-05-09T11:44:58.523Z,25.10
2024-05-09T11:49:00.030Z,25.40
2024-05-09T11:53:01.420Z,25.30
2024-05-09T11:57:03.881Z,24.50
2024-05-09T12:01:05.245Z,24.60
2024-05-09T12:05:06.889Z,24.20
2024-05-09T12:09:08.515Z,24.20
2024-05-09T12:13:10.108Z,25.10
2024-05-09T12:17:12.108Z,25.80
2024-05-09T12:21:15.322Z,25.90
2024-05-09T12:25:16.812Z,26.00
2024-05-09T12:29:18.178Z,25.60
2024-05-09T12:33:20.221Z,25.00
2024-05-09T12:37:21.675Z,24.60
2024-05-09T12:41:23.091Z,25.10
2024-05-09T12:45:25.002Z,26.00
2024-05-09T12:49:26.659Z,25.60
2024-05-09T12:53:28.377Z,25.20
2024-05-09T12:57:30.054Z,25.30
2024-05-09T13:01:31.573Z,24.80
2024-05-09T13:05:33.325Z,25.10
2024-05-09T13:09:35.142Z,25.00
2024-05-09T13:13:36.526Z,25.30
2024-05-09T13:17:38.068Z,25.20
2024-05-09T13:21:39.649Z,25.70
2024-05-09T13:25:40.973Z,25.60
2024-05-09T13:29:44.344Z,25.50
2024-05-09T13:33:46.151Z,25.50
2024-05-09T13:37:47.913Z,25.70
2024-05-09T13:41:49.234Z,25.70
2024-05-09T13:45:51.327Z,25.80
2024-05-09T13:49:52.898Z,25.80
2024-05-09T13:53:56.133Z,25.90
2024-05-09T13:57:57.729Z,25.40
2024-05-09T14:01:59.404Z,25.20
2024-05-09T14:06:01.757Z,24.70
2024-05-09T14:10:23.227Z,25.50
2024-05-09T14:14:20.279Z,25.80
2024-05-09T14:18:21.699Z,25.20
2024-05-09T14:22:23.233Z,25.40
2024-05-09T14:26:25.343Z,24.80
2024-05-09T14:30:34.679Z,23.90
2024-05-09T14:34:30.225Z,23.70
2024-05-09T14:38:31.675Z,23.70
2024-05-09T14:42:33.089Z,24.10
2024-05-09T14:46:34.762Z,24.30
2024-05-09T14:50:39.135Z,24.20
2024-05-09T14:54:39.659Z,24.60
2024-05-09T14:58:41.059Z,24.80
2024-05-09T15:02:42.411Z,24.90
2024-05-09T15:06:43.964Z,24.90
2024-05-09T15:10:45.664Z,25.20
2024-05-09T15:14:47.627Z,25.40
2024-05-09T15:18:49.176Z,24.90
2024-05-09T15:22:50.813Z,24.50
2024-05-09T15:26:53.107Z,24.20
2024-05-09T15:30:54.486Z,24.40
2024-05-09T15:34:55.924Z,24.60
2024-05-09T15:38:57.215Z,25.00
2024-05-09T15:42:58.630Z,25.40
2024-05-09T15:47:00.326Z,25.50
2024-05-09T15:51:01.821Z,25.40
2024-05-09T15:55:04.258Z,25.20
2024-05-09T15:59:05.953Z,24.50
2024-05-09T16:03:12.769Z,24.20
2024-05-09T16:07:14.801Z,23.60
2024-05-09T16:11:16.413Z,23.40
2024-05-09T16:15:19.012Z,23.70
2024-05-09T16:19:21.062Z,23.70
2024-05-09T16:23:23.459Z,23.80
2024-05-09T16:27:25.769Z,23.90
2024-05-09T16:31:27.497Z,23.90
2024-05-09T16:35:29.088Z,23.70
2024-05-09T16:39:30.435Z,23.90
2024-05-09T16:43:32.040Z,24.00
2024-05-09T16:47:33.624Z,23.90
2024-05-09T16:51:34.945Z,23.60
2024-05-09T16:55:36.655Z,23.30
2024-05-09T16:59:38.343Z,23.20
2024-05-09T17:03:40.133Z,23.50
2024-05-09T17:07:42.380Z,23.10
2024-05-09T17:11:43.776Z,23.00
2024-05-09T17:15:46.130Z,23.20
2024-05-09T17:19:47.876Z,23.20
2024-05-09T17:23:51.057Z,23.10
2024-05-09T17:27:52.607Z,22.90
2024-05-09T17:31:54.037Z,22.70
2024-05-09T17:35:55.354Z,22.70
2024-05-09T17:39:56.863Z,22.70
2024-05-09T17:43:58.305Z,22.70
2024-05-09T17:48:00.459Z,22.60
2024-05-09T17:52:02.003Z,22.50
2024-05-09T17:56:04.016Z,22.30
2024-05-09T18:00:11.471Z,22.20
2024-05-09T18:04:10.362Z,22.20
2024-05-09T18:08:11.930Z,22.00
2024-05-09T18:12:13.392Z,21.90
2024-05-09T18:16:15.507Z,21.80
2024-05-09T18:20:28.284Z,21.60
2024-05-09T18:24:21.403Z,21.50
2024-05-09T18:28:23.618Z,21.50
2024-05-09T18:32:25.199Z,21.20
2024-05-09T18:36:26.837Z,21.20
2024-05-09T18:40:33.984Z,21.10
2024-05-09T18:44:31.318Z,20.90
2024-05-09T18:48:33.713Z,20.90
2024-05-09T18:52:35.110Z,20.80
2024-05-09T18:56:36.843Z,20.70
2024-05-09T19:00:41.119Z,20.70
2024-05-09T19:04:41.517Z,20.60
2024-05-09T19:08:43.124Z,20.50
2024-05-09T19:12:44.556Z,20.50
2024-05-09T19:16:46.021Z,20.30
2024-05-09T19:20:48.630Z,20.30
2024-05-09T19:24:50.511Z,20.40
2024-05-09T19:28:52.000Z,20.50
2024-05-09T19:32:53.450Z,20.40
2024-05-09T19:36:54.799Z,20.40
2024-05-09T19:40:56.294Z,20.10
2024-05-09T19:44:57.784Z,19.80
2024-05-09T19:48:59.585Z,19.70
2024-05-09T19:53:01.199Z,19.60
2024-05-09T19:57:02.972Z,19.60
2024-05-09T20:01:04.654Z,19.60
2024-05-09T20:05:06.659Z,19.50
2024-05-09T20:09:08.080Z,19.40
2024-05-09T20:13:09.691Z,19.30
2024-05-09T20:17:11.058Z,19.30
2024-05-09T20:21:12.436Z,19.10
2024-05-09T20:25:14.267Z,19.00
2024-05-09T20:29:15.764Z,18.90
2024-05-09T20:33:17.328Z,18.90
2024-05-09T20:37:19.926Z,18.80
2024-05-09T20:41:21.191Z,18.70
2024-05-09T20:45:22.556Z,18.60
2024-05-09T20:49:23.998Z,18.40
2024-05-09T20:53:25.311Z,18.40
2024-05-09T20:57:26.639Z,18.30
2024-05-09T21:01:28.001Z,18.30
2024-05-09T21:05:29.434Z,18.30
2024-05-09T21:09:31.000Z,18.30
2024-05-09T21:13:32.392Z,18.20
2024-05-09T21:17:34.888Z,18.10
2024-05-09T21:21:41.316Z,18.00
2024-05-09T21:25:42.609Z,18.00
2024-05-09T21:29:43.926Z,17.90
2024-05-09T21:33:45.485Z,17.70
2024-05-09T21:37:46.803Z,17.50
2024-05-09T21:41:48.171Z,17.50
2024-05-09T21:45:49.567Z,17.40
2024-05-09T21:49:50.964Z,17.20
2024-05-09T21:53:52.322Z,17.20
2024-05-09T21:57:55.651Z,17.10
2024-05-09T22:01:57.274Z,17.00
2024-05-09T22:05:59.367Z,17.00
2024-05-09T22:10:00.851Z,17.00
2024-05-09T22:14:02.311Z,16.90
2024-05-09T22:18:05.300Z,16.90
2024-05-09T22:22:06.824Z,16.80
2024-05-09T22:26:08.235Z,16.60
2024-05-09T22:30:14.657Z,16.60
2024-05-09T22:34:13.253Z,16.60
2024-05-09T22:38:14.690Z,16.50
2024-05-09T22:42:15.983Z,16.50
2024-05-09T22:46:17.665Z,16.50
2024-05-09T22:50:26.546Z,16.40
2024-05-09T22:54:22.249Z,16.40
2024-05-09T22:58:24.012Z,16.30
2024-05-09T23:02:25.809Z,16.30
2024-05-09T23:06:27.123Z,16.30
2024-05-09T23:10:35.175Z,16.20
2024-05-09T23:14:31.853Z,16.10
2024-05-09T23:18:33.406Z,16.10
2024-05-09T23:22:34.759Z,16.10
2024-05-09T23:26:39.887Z,16.00
2024-05-09T23:30:41.994Z,16.00
2024-05-09T23:34:43.881Z,15.90
2024-05-09T23:38:45.450Z,15.80
2024-05-09T23:42:46.966Z,15.70
2024-05-09T23:46:48.300Z,15.70
2024-05-09T23:50:49.593Z,15.60
2024-05-09T23:54:51.072Z,15.40
2024-05-09T23:58:52.370Z,15.40
